Wednesday, April 01, 2015
13:14 UTC
  |  Log In   |  Register Free
Airport Search:

Raleigh-Durham International Airport
(KRDU)

FAA data valid effective March 05, 2015 - April 30, 2015 (unless otherwise noted).

 
 
 
 
 
 
 
 
 
 
 
 
 
 

Current Aviation Weather for Raleigh-Durham International Airport (KRDU)

The most recent METAR observation for KRDU was updated at: 1213
METAR Summary (Translated METAR)
KRDU
011151Z 05010KT 10SM FEW150 10/03 A3005 RMK AO2 SLP175 T01000033 10156 20083 53044
KIGX
011256Z AUTO 04012G18KT 10SM CLR 11/02 A3008 RMK AO2 SLP183 T01110017 TSNO
(14 nm NW from KRDU)
KTTA
011155Z AUTO 03004KT 10SM CLR 10/05 A3003 RMK AO2 T01040051 10165 20069
(23.4 nm SW from KRDU)
TAF Summary (Translated TAF)
KRDU
011126Z 0112/0212 03007KT P6SM SKC TEMPO 0112/0115 04011G17KT SCT025 SCT250
  Airport Weather Conditions for KRDU

 Current Weather at RDU
50° F
A Few Clouds
Northeast winds at 11.5 mph
RDU NOAA Radar

Pressure: 30.05 in
Humidity: 63%
Wind: Northeast at 11.5 MPH (10 KT)
Dew Point: 37.9°F
Visibility: 10.00 mi


Airport Weather Forecast for KRDU

Translated METAR and TAF for KRDU
Translated METAR for KRDU (1313 UTC 01 April 2015)
found at http://aviationweather.gov/adds/metars/
 
METAR text: KRDU 011251Z 08013KT 10SM FEW150 10/02 A3008 RMK AO2 SLP183 T01000022
Conditions at: KRDU (RALEIGH/DURHAM , NC, US) observed 1251 UTC 01 April 2015
Temperature: 10.0°C (50°F)
Dewpoint: 2.2°C (36°F) [RH = 58%]
Pressure (altimeter): 30.08 inches Hg (1018.7 mb)
[Sea-level pressure: 1018.3 mb]
Winds: from the E (80 degrees) at 15 MPH (13 knots; 6.8 m/s)
Visibility: 10 or more miles (16+ km)
Ceiling: at least 12,000 feet AGL
Clouds: few clouds at 15000 feet AGL
Weather: no significant weather observed at this time
Translated TAF for KRDU
Forecast for: KRDU (RALEIGH/DURHAM , NC, US)
TAF Text: KRDU 011304Z 0113/0212 03007KT P6SM SKC
Forecast period: 1300 UTC 01 April 2015 to 1200 UTC 02 April 2015
Forecast type: FROM: standard forecast or significant change
Winds: from the NNE (30 degrees) at 8 MPH (7 knots; 3.6 m/s)
Visibility: 6 or more miles (10+ km)
Clouds: clear skies
Weather: no significant weather forecast for this period
TAF Text: TEMPO 0113/0115 07011G17KT SCT025 SCT250
Forecast period: 1300 to 1500 UTC 01 April 2015
Forecast type: TEMPORARY: The following changes expected for less than half the time period
Winds: from the ENE (70 degrees) at 13 MPH (11 knots; 5.7 m/s)
gusting to 20 MPH (17 knots; 8.8 m/s)
Clouds: scattered clouds at 2500 feet AGL
scattered clouds at 25000 feet AGL
Weather: no significant weather forecast for this period

Find All Airport Services Find A Hotel Find A Rental Car Find A Golf Course Find A Restaurant $100 Hamburger



FBO's on the Field
FBO Company Facility Photos Services Transportation Aviation Fuel Prices: Prices include tax
Catering Weather Repair Courtesy Rental Type 100LL JetA JetA+ MOGAS 8087
 
Landmark Aviation - RDU

Currently rated 4.4 by 2 people
FS:Shell
Last Updated: Apr-01
Login to update fuel prices
SS:
Contact Landmark Aviation - RDUMore FBO Information
 
TAC Air - RDU

Currently rated 1.8 by 3 people
FS:Avfuel
Last Updated: Mar-30
Login to update fuel prices
SS:
Contact TAC Air - RDUMore FBO Information
 
Add another FBO Facility Photos Catering Weather Repair Courtesy Rental Type 100LL JetA JetA+ MOGAS 8087
Services Transportation Aviation Fuel Prices: Prices include tax


model-print
model-print
model-print
model-print